Pea Ridge, Arkansas
Current Conditions -  °F | °C
As of 1:57 PM on Wednesday 28 Jan 2015 (Local Time) from KROG Reporting Station
Clear Clear  
Wind Chill: 70°   Ceiling: Unl
Heat Index: 70°   Visibility: 10mi
Dew Point: 40°   Wind: 18mph
Humidity: 33%   Direction: 190°S
Pressure: 29.96"   Gusts: 30mph
Location:  36.45°N, 94.12°W
Report Text: KROG 281957Z 19016G26KT 10SM CLR 21/04 A2996 RMK AO2 PK WND 20026/1948 SLP141 T02110044
Loading
Personal Weather Stations






























Interactive Weather Map New forecast layout! Learn more

10-Day Weather Forecast

Advertisements
Track Severe Weather on mobile